sensor_id;sensor_type;location;lat;lon;timestamp;pressure;altitude;pressure_sealevel;temperature;humidity
16777;BME280;8505;49.456;8.164;2024-03-07T00:00:06;100415.16;;;7.48;87.39
16777;BME280;8505;49.456;8.164;2024-03-07T00:02:41;100426.16;;;7.22;88.10
16777;BME280;8505;49.456;8.164;2024-03-07T00:05:09;100421.38;;;6.97;89.01
16777;BME280;8505;49.456;8.164;2024-03-07T00:07:37;100421.72;;;7.13;87.72
16777;BME280;8505;49.456;8.164;2024-03-07T00:10:08;100421.59;;;7.24;87.17
16777;BME280;8505;49.456;8.164;2024-03-07T00:12:36;100419.09;;;7.23;87.32
16777;BME280;8505;49.456;8.164;2024-03-07T00:15:08;100427.00;;;7.23;87.11
16777;BME280;8505;49.456;8.164;2024-03-07T00:17:37;100428.22;;;7.09;87.19
16777;BME280;8505;49.456;8.164;2024-03-07T00:20:06;100428.59;;;7.05;87.90
16777;BME280;8505;49.456;8.164;2024-03-07T00:22:36;100427.28;;;7.20;87.28
16777;BME280;8505;49.456;8.164;2024-03-07T00:25:04;100428.38;;;7.17;87.30
16777;BME280;8505;49.456;8.164;2024-03-07T00:27:35;100422.34;;;7.06;87.15
16777;BME280;8505;49.456;8.164;2024-03-07T00:30:04;100428.03;;;7.01;86.88
16777;BME280;8505;49.456;8.164;2024-03-07T00:32:35;100426.16;;;6.92;87.52
16777;BME280;8505;49.456;8.164;2024-03-07T00:35:06;100429.00;;;7.00;87.53
16777;BME280;8505;49.456;8.164;2024-03-07T00:37:35;100427.72;;;6.95;87.34
16777;BME280;8505;49.456;8.164;2024-03-07T00:40:04;100429.94;;;6.99;87.74
16777;BME280;8505;49.456;8.164;2024-03-07T00:42:32;100428.25;;;6.88;88.52
16777;BME280;8505;49.456;8.164;2024-03-07T00:45:01;100427.22;;;7.10;88.05
16777;BME280;8505;49.456;8.164;2024-03-07T00:47:29;100428.91;;;7.11;87.46
16777;BME280;8505;49.456;8.164;2024-03-07T00:49:58;100426.56;;;7.18;87.46
16777;BME280;8505;49.456;8.164;2024-03-07T00:52:26;100423.50;;;7.13;87.48
16777;BME280;8505;49.456;8.164;2024-03-07T00:54:54;100427.81;;;7.14;86.96
16777;BME280;8505;49.456;8.164;2024-03-07T00:57:22;100420.69;;;7.05;87.30
16777;BME280;8505;49.456;8.164;2024-03-07T00:59:50;100420.16;;;7.11;86.56
16777;BME280;8505;49.456;8.164;2024-03-07T01:02:19;100425.00;;;7.06;87.84
16777;BME280;8505;49.456;8.164;2024-03-07T01:04:47;100424.47;;;7.12;87.37
16777;BME280;8505;49.456;8.164;2024-03-07T01:07:15;100422.75;;;7.01;88.21
16777;BME280;8505;49.456;8.164;2024-03-07T01:09:42;100416.84;;;7.09;88.19
16777;BME280;8505;49.456;8.164;2024-03-07T01:12:10;100419.00;;;7.04;88.03
16777;BME280;8505;49.456;8.164;2024-03-07T01:14:38;100414.53;;;7.15;87.51
16777;BME280;8505;49.456;8.164;2024-03-07T01:17:06;100408.88;;;6.99;87.39
16777;BME280;8505;49.456;8.164;2024-03-07T01:19:36;100413.09;;;7.11;88.17
16777;BME280;8505;49.456;8.164;2024-03-07T01:22:05;100407.53;;;7.05;87.37
16777;BME280;8505;49.456;8.164;2024-03-07T01:24:33;100411.94;;;7.04;87.45
16777;BME280;8505;49.456;8.164;2024-03-07T01:27:01;100403.41;;;7.12;87.31
16777;BME280;8505;49.456;8.164;2024-03-07T01:29:30;100400.97;;;6.89;87.89
16777;BME280;8505;49.456;8.164;2024-03-07T01:31:57;100398.47;;;6.98;87.68
16777;BME280;8505;49.456;8.164;2024-03-07T01:34:25;100403.56;;;7.20;87.36
16777;BME280;8505;49.456;8.164;2024-03-07T01:36:54;100400.38;;;6.86;88.38
16777;BME280;8505;49.456;8.164;2024-03-07T01:39:21;100397.56;;;6.78;88.96
16777;BME280;8505;49.456;8.164;2024-03-07T01:41:49;100401.09;;;6.88;88.01
16777;BME280;8505;49.456;8.164;2024-03-07T01:44:17;100399.28;;;6.88;88.62
16777;BME280;8505;49.456;8.164;2024-03-07T01:46:45;100398.13;;;6.81;88.33
16777;BME280;8505;49.456;8.164;2024-03-07T01:49:13;100393.94;;;6.79;89.63
16777;BME280;8505;49.456;8.164;2024-03-07T01:51:40;100395.84;;;6.98;87.77
16777;BME280;8505;49.456;8.164;2024-03-07T01:54:11;100385.72;;;6.93;88.32
16777;BME280;8505;49.456;8.164;2024-03-07T01:56:39;100391.25;;;6.90;89.10
16777;BME280;8505;49.456;8.164;2024-03-07T01:59:08;100392.66;;;6.94;88.53
16777;BME280;8505;49.456;8.164;2024-03-07T02:01:37;100389.25;;;7.03;88.84
16777;BME280;8505;49.456;8.164;2024-03-07T02:04:06;100383.78;;;6.65;89.88
16777;BME280;8505;49.456;8.164;2024-03-07T02:06:35;100381.38;;;6.82;88.43
16777;BME280;8505;49.456;8.164;2024-03-07T02:09:02;100384.88;;;6.62;89.32
16777;BME280;8505;49.456;8.164;2024-03-07T02:11:33;100391.50;;;6.57;90.10
16777;BME280;8505;49.456;8.164;2024-03-07T02:14:01;100380.78;;;6.48;90.70
16777;BME280;8505;49.456;8.164;2024-03-07T02:16:29;100383.16;;;6.72;89.42
16777;BME280;8505;49.456;8.164;2024-03-07T02:18:57;100383.81;;;6.74;88.91
16777;BME280;8505;49.456;8.164;2024-03-07T02:21:28;100381.25;;;6.84;89.60
16777;BME280;8505;49.456;8.164;2024-03-07T02:23:56;100371.47;;;6.65;89.80
16777;BME280;8505;49.456;8.164;2024-03-07T02:26:24;100380.13;;;6.77;89.23
16777;BME280;8505;49.456;8.164;2024-03-07T02:28:53;100375.94;;;6.74;90.36
16777;BME280;8505;49.456;8.164;2024-03-07T02:31:21;100370.97;;;6.81;90.33
16777;BME280;8505;49.456;8.164;2024-03-07T02:34:01;100372.09;;;6.78;89.70
16777;BME280;8505;49.456;8.164;2024-03-07T02:36:30;100370.78;;;6.73;89.40
16777;BME280;8505;49.456;8.164;2024-03-07T02:38:58;100370.88;;;6.62;90.80
16777;BME280;8505;49.456;8.164;2024-03-07T02:41:27;100364.13;;;6.69;90.21
16777;BME280;8505;49.456;8.164;2024-03-07T02:43:55;100366.56;;;6.61;89.75
16777;BME280;8505;49.456;8.164;2024-03-07T02:46:22;100365.84;;;6.79;89.66
16777;BME280;8505;49.456;8.164;2024-03-07T02:48:50;100362.78;;;6.74;89.54
16777;BME280;8505;49.456;8.164;2024-03-07T02:51:18;100362.09;;;6.72;90.42
16777;BME280;8505;49.456;8.164;2024-03-07T02:53:47;100359.53;;;6.61;90.38
16777;BME280;8505;49.456;8.164;2024-03-07T02:56:15;100356.75;;;6.63;89.71
16777;BME280;8505;49.456;8.164;2024-03-07T02:58:43;100355.44;;;6.47;90.32
16777;BME280;8505;49.456;8.164;2024-03-07T03:01:11;100354.34;;;6.50;89.82
16777;BME280;8505;49.456;8.164;2024-03-07T03:03:39;100352.53;;;6.50;89.84
16777;BME280;8505;49.456;8.164;2024-03-07T03:06:08;100352.69;;;6.28;90.58
16777;BME280;8505;49.456;8.164;2024-03-07T03:08:36;100349.59;;;6.44;89.48
16777;BME280;8505;49.456;8.164;2024-03-07T03:11:05;100343.34;;;6.35;90.55
16777;BME280;8505;49.456;8.164;2024-03-07T03:13:37;100349.03;;;6.40;89.94
16777;BME280;8505;49.456;8.164;2024-03-07T03:16:06;100336.25;;;6.36;89.88
16777;BME280;8505;49.456;8.164;2024-03-07T03:18:35;100339.41;;;6.30;90.30
16777;BME280;8505;49.456;8.164;2024-03-07T03:21:03;100344.41;;;6.33;90.53
16777;BME280;8505;49.456;8.164;2024-03-07T03:23:31;100348.19;;;6.19;91.11
16777;BME280;8505;49.456;8.164;2024-03-07T03:25:59;100350.34;;;5.93;91.80
16777;BME280;8505;49.456;8.164;2024-03-07T03:28:28;100347.63;;;5.95;91.42
16777;BME280;8505;49.456;8.164;2024-03-07T03:30:55;100345.69;;;5.97;92.85
16777;BME280;8505;49.456;8.164;2024-03-07T03:33:24;100348.00;;;6.11;91.87
16777;BME280;8505;49.456;8.164;2024-03-07T03:35:51;100350.16;;;5.85;91.56
16777;BME280;8505;49.456;8.164;2024-03-07T03:38:22;100352.41;;;5.90;92.41
16777;BME280;8505;49.456;8.164;2024-03-07T03:40:50;100353.13;;;5.92;92.78
16777;BME280;8505;49.456;8.164;2024-03-07T03:43:17;100353.34;;;5.57;93.10
16777;BME280;8505;49.456;8.164;2024-03-07T03:45:47;100355.06;;;5.47;94.02
16777;BME280;8505;49.456;8.164;2024-03-07T03:48:15;100354.72;;;5.40;95.10
16777;BME280;8505;49.456;8.164;2024-03-07T03:50:43;100354.69;;;5.51;94.38
16777;BME280;8505;49.456;8.164;2024-03-07T03:53:12;100353.91;;;5.72;93.37
16777;BME280;8505;49.456;8.164;2024-03-07T03:55:40;100346.34;;;5.78;91.77
16777;BME280;8505;49.456;8.164;2024-03-07T03:58:08;100348.25;;;5.44;92.94
16777;BME280;8505;49.456;8.164;2024-03-07T04:00:36;100347.56;;;5.31;92.96
16777;BME280;8505;49.456;8.164;2024-03-07T04:03:07;100354.78;;;5.50;93.41
16777;BME280;8505;49.456;8.164;2024-03-07T04:05:35;100344.31;;;5.39;93.11
16777;BME280;8505;49.456;8.164;2024-03-07T04:08:03;100348.50;;;5.41;92.34
16777;BME280;8505;49.456;8.164;2024-03-07T04:10:32;100350.41;;;5.39;93.36
16777;BME280;8505;49.456;8.164;2024-03-07T04:12:59;100348.03;;;5.25;93.32
16777;BME280;8505;49.456;8.164;2024-03-07T04:15:27;100356.63;;;5.27;93.48
16777;BME280;8505;49.456;8.164;2024-03-07T04:18:01;100359.41;;;5.14;94.00
16777;BME280;8505;49.456;8.164;2024-03-07T04:20:30;100357.47;;;5.27;93.78
16777;BME280;8505;49.456;8.164;2024-03-07T04:22:58;100356.16;;;5.33;92.65
16777;BME280;8505;49.456;8.164;2024-03-07T04:25:26;100351.50;;;5.25;92.97
16777;BME280;8505;49.456;8.164;2024-03-07T04:27:54;100346.19;;;4.94;93.99
16777;BME280;8505;49.456;8.164;2024-03-07T04:30:22;100352.28;;;4.72;94.40
16777;BME280;8505;49.456;8.164;2024-03-07T04:32:50;100354.19;;;4.92;94.18
16777;BME280;8505;49.456;8.164;2024-03-07T04:35:18;100359.19;;;4.84;94.33
16777;BME280;8505;49.456;8.164;2024-03-07T04:37:47;100348.34;;;4.77;94.82
16777;BME280;8505;49.456;8.164;2024-03-07T04:40:15;100352.63;;;4.67;93.78
16777;BME280;8505;49.456;8.164;2024-03-07T04:42:46;100347.88;;;4.50;95.02
16777;BME280;8505;49.456;8.164;2024-03-07T04:45:15;100347.75;;;4.63;94.80
16777;BME280;8505;49.456;8.164;2024-03-07T04:47:44;100350.25;;;4.86;93.87
16777;BME280;8505;49.456;8.164;2024-03-07T04:50:12;100342.38;;;4.75;94.28
16777;BME280;8505;49.456;8.164;2024-03-07T04:52:44;100348.81;;;4.60;93.26
16777;BME280;8505;49.456;8.164;2024-03-07T04:55:13;100350.44;;;4.39;94.74
16777;BME280;8505;49.456;8.164;2024-03-07T04:57:41;100349.84;;;4.24;96.01
16777;BME280;8505;49.456;8.164;2024-03-07T05:00:11;100353.78;;;4.19;96.56
16777;BME280;8505;49.456;8.164;2024-03-07T05:02:41;100354.63;;;4.30;94.65
16777;BME280;8505;49.456;8.164;2024-03-07T05:05:09;100353.16;;;4.26;96.47
16777;BME280;8505;49.456;8.164;2024-03-07T05:07:37;100350.63;;;4.14;96.78
16777;BME280;8505;49.456;8.164;2024-03-07T05:10:07;100358.09;;;4.31;96.29
16777;BME280;8505;49.456;8.164;2024-03-07T05:12:36;100348.28;;;4.33;95.97
16777;BME280;8505;49.456;8.164;2024-03-07T05:15:05;100343.09;;;4.44;93.58
16777;BME280;8505;49.456;8.164;2024-03-07T05:17:36;100349.28;;;4.65;94.25
16777;BME280;8505;49.456;8.164;2024-03-07T05:20:07;100352.47;;;4.24;93.81
16777;BME280;8505;49.456;8.164;2024-03-07T05:22:37;100349.75;;;4.48;94.29
16777;BME280;8505;49.456;8.164;2024-03-07T05:25:07;100346.19;;;4.38;93.08
16777;BME280;8505;49.456;8.164;2024-03-07T05:27:37;100353.47;;;4.57;93.25
16777;BME280;8505;49.456;8.164;2024-03-07T05:30:06;100351.06;;;4.54;92.08
16777;BME280;8505;49.456;8.164;2024-03-07T05:32:38;100357.06;;;4.67;92.68
16777;BME280;8505;49.456;8.164;2024-03-07T05:35:07;100348.34;;;4.55;92.09
16777;BME280;8505;49.456;8.164;2024-03-07T05:37:35;100344.97;;;4.31;92.75
16777;BME280;8505;49.456;8.164;2024-03-07T05:40:03;100349.66;;;4.50;93.72
16777;BME280;8505;49.456;8.164;2024-03-07T05:42:34;100351.91;;;4.43;92.80
16777;BME280;8505;49.456;8.164;2024-03-07T05:45:03;100356.59;;;4.16;92.76
16777;BME280;8505;49.456;8.164;2024-03-07T05:47:34;100356.97;;;4.22;92.92
16777;BME280;8505;49.456;8.164;2024-03-07T05:50:02;100360.88;;;4.05;93.64
16777;BME280;8505;49.456;8.164;2024-03-07T05:52:30;100351.91;;;3.97;93.63
16777;BME280;8505;49.456;8.164;2024-03-07T05:54:58;100350.22;;;3.96;94.95
16777;BME280;8505;49.456;8.164;2024-03-07T05:57:26;100348.75;;;4.16;93.44
16777;BME280;8505;49.456;8.164;2024-03-07T05:59:53;100347.38;;;3.88;94.93
16777;BME280;8505;49.456;8.164;2024-03-07T06:02:24;100350.25;;;3.72;95.27
16777;BME280;8505;49.456;8.164;2024-03-07T06:04:52;100352.94;;;3.59;96.01
16777;BME280;8505;49.456;8.164;2024-03-07T06:07:19;100347.63;;;3.72;95.78
16777;BME280;8505;49.456;8.164;2024-03-07T06:09:47;100357.09;;;3.51;96.26
16777;BME280;8505;49.456;8.164;2024-03-07T06:12:15;100350.56;;;3.91;94.98
16777;BME280;8505;49.456;8.164;2024-03-07T06:14:53;100347.00;;;3.92;94.41
16777;BME280;8505;49.456;8.164;2024-03-07T06:17:20;100343.41;;;3.82;94.74
16777;BME280;8505;49.456;8.164;2024-03-07T06:19:51;100355.25;;;3.64;95.91
16777;BME280;8505;49.456;8.164;2024-03-07T06:22:18;100355.41;;;3.50;97.07
16777;BME280;8505;49.456;8.164;2024-03-07T06:24:46;100346.75;;;3.84;95.69
16777;BME280;8505;49.456;8.164;2024-03-07T06:27:14;100352.22;;;3.81;95.29
16777;BME280;8505;49.456;8.164;2024-03-07T06:29:53;100354.03;;;3.92;94.84
16777;BME280;8505;49.456;8.164;2024-03-07T06:32:22;100344.31;;;4.05;94.56
16777;BME280;8505;49.456;8.164;2024-03-07T06:34:52;100351.47;;;4.14;93.74
16777;BME280;8505;49.456;8.164;2024-03-07T06:37:20;100349.44;;;4.06;93.88
16777;BME280;8505;49.456;8.164;2024-03-07T06:39:48;100349.03;;;3.89;94.70
16777;BME280;8505;49.456;8.164;2024-03-07T06:42:15;100350.59;;;4.02;94.58
16777;BME280;8505;49.456;8.164;2024-03-07T06:44:44;100360.00;;;3.94;93.11
16777;BME280;8505;49.456;8.164;2024-03-07T06:47:12;100363.25;;;4.08;93.76
16777;BME280;8505;49.456;8.164;2024-03-07T06:49:40;100363.31;;;4.31;93.21
16777;BME280;8505;49.456;8.164;2024-03-07T06:52:10;100363.88;;;4.12;91.95
16777;BME280;8505;49.456;8.164;2024-03-07T06:54:38;100357.59;;;4.26;92.46
16777;BME280;8505;49.456;8.164;2024-03-07T06:57:05;100364.19;;;4.07;92.23
16777;BME280;8505;49.456;8.164;2024-03-07T06:59:34;100360.75;;;4.07;93.71
16777;BME280;8505;49.456;8.164;2024-03-07T07:02:03;100356.84;;;4.13;92.40
16777;BME280;8505;49.456;8.164;2024-03-07T07:04:31;100356.38;;;4.19;92.82
16777;BME280;8505;49.456;8.164;2024-03-07T07:07:10;100352.22;;;4.38;91.39
16777;BME280;8505;49.456;8.164;2024-03-07T07:09:39;100351.06;;;4.54;91.43
16777;BME280;8505;49.456;8.164;2024-03-07T07:12:08;100350.03;;;4.56;90.95
16777;BME280;8505;49.456;8.164;2024-03-07T07:14:36;100345.06;;;4.18;91.96
16777;BME280;8505;49.456;8.164;2024-03-07T07:17:06;100345.34;;;4.60;90.90
16777;BME280;8505;49.456;8.164;2024-03-07T07:19:36;100345.47;;;4.47;90.17
16777;BME280;8505;49.456;8.164;2024-03-07T07:22:04;100351.38;;;4.27;92.13
16777;BME280;8505;49.456;8.164;2024-03-07T07:24:34;100351.81;;;4.56;89.94
16777;BME280;8505;49.456;8.164;2024-03-07T07:27:01;100352.75;;;4.66;90.88
16777;BME280;8505;49.456;8.164;2024-03-07T07:29:30;100347.97;;;4.60;90.70
16777;BME280;8505;49.456;8.164;2024-03-07T07:31:57;100350.22;;;4.53;91.23
16777;BME280;8505;49.456;8.164;2024-03-07T07:34:25;100346.56;;;4.78;90.03
16777;BME280;8505;49.456;8.164;2024-03-07T07:36:53;100338.38;;;4.14;91.13
16777;BME280;8505;49.456;8.164;2024-03-07T07:39:20;100345.91;;;4.30;91.38
16777;BME280;8505;49.456;8.164;2024-03-07T07:41:50;100347.97;;;4.48;91.41
16777;BME280;8505;49.456;8.164;2024-03-07T07:44:17;100339.25;;;4.37;91.50
16777;BME280;8505;49.456;8.164;2024-03-07T07:46:46;100338.44;;;4.36;92.50
16777;BME280;8505;49.456;8.164;2024-03-07T07:49:16;100339.28;;;4.70;90.11
16777;BME280;8505;49.456;8.164;2024-03-07T07:51:43;100342.38;;;4.64;89.51
16777;BME280;8505;49.456;8.164;2024-03-07T07:54:11;100346.66;;;4.76;89.34
16777;BME280;8505;49.456;8.164;2024-03-07T07:56:39;100341.91;;;4.93;89.79
16777;BME280;8505;49.456;8.164;2024-03-07T07:59:08;100340.66;;;5.19;88.98
16777;BME280;8505;49.456;8.164;2024-03-07T08:01:36;100350.34;;;5.18;87.97
16777;BME280;8505;49.456;8.164;2024-03-07T08:04:04;100357.03;;;4.78;87.56
16777;BME280;8505;49.456;8.164;2024-03-07T08:06:31;100353.44;;;5.12;87.32
16777;BME280;8505;49.456;8.164;2024-03-07T08:09:23;100352.72;;;5.21;87.90
16777;BME280;8505;49.456;8.164;2024-03-07T08:11:51;100342.38;;;4.98;88.88
16777;BME280;8505;49.456;8.164;2024-03-07T08:14:20;100345.47;;;5.03;89.29
16777;BME280;8505;49.456;8.164;2024-03-07T08:16:49;100335.41;;;5.30;88.88
16777;BME280;8505;49.456;8.164;2024-03-07T08:19:17;100341.34;;;5.32;86.13
16777;BME280;8505;49.456;8.164;2024-03-07T08:21:45;100339.28;;;4.93;87.71
16777;BME280;8505;49.456;8.164;2024-03-07T08:24:12;100331.91;;;4.86;89.08
16777;BME280;8505;49.456;8.164;2024-03-07T08:26:40;100328.31;;;4.87;88.71
16777;BME280;8505;49.456;8.164;2024-03-07T08:29:11;100333.28;;;5.13;88.01
16777;BME280;8505;49.456;8.164;2024-03-07T08:31:41;100339.88;;;5.50;87.09
16777;BME280;8505;49.456;8.164;2024-03-07T08:34:09;100336.22;;;5.42;87.28
16777;BME280;8505;49.456;8.164;2024-03-07T08:36:37;100328.41;;;5.51;85.61
16777;BME280;8505;49.456;8.164;2024-03-07T08:39:06;100325.88;;;5.61;85.15
16777;BME280;8505;49.456;8.164;2024-03-07T08:41:37;100321.22;;;5.21;85.20
16777;BME280;8505;49.456;8.164;2024-03-07T08:44:07;100318.47;;;5.66;84.09
16777;BME280;8505;49.456;8.164;2024-03-07T08:46:36;100317.41;;;5.89;85.01
16777;BME280;8505;49.456;8.164;2024-03-07T08:49:05;100313.66;;;6.03;83.15
16777;BME280;8505;49.456;8.164;2024-03-07T08:51:32;100306.50;;;5.94;82.79
16777;BME280;8505;49.456;8.164;2024-03-07T08:54:00;100303.56;;;6.08;83.47
16777;BME280;8505;49.456;8.164;2024-03-07T08:56:28;100300.22;;;6.06;81.69
16777;BME280;8505;49.456;8.164;2024-03-07T08:58:56;100300.94;;;6.08;81.13
16777;BME280;8505;49.456;8.164;2024-03-07T09:01:24;100295.84;;;6.37;81.43
16777;BME280;8505;49.456;8.164;2024-03-07T09:03:51;100299.28;;;6.58;80.73
16777;BME280;8505;49.456;8.164;2024-03-07T09:06:20;100298.44;;;6.58;79.42
16777;BME280;8505;49.456;8.164;2024-03-07T09:08:48;100299.38;;;6.47;78.13
16777;BME280;8505;49.456;8.164;2024-03-07T09:11:16;100294.47;;;6.42;78.40
16777;BME280;8505;49.456;8.164;2024-03-07T09:13:44;100296.78;;;6.57;76.60
16777;BME280;8505;49.456;8.164;2024-03-07T09:16:12;100292.78;;;6.32;76.70
16777;BME280;8505;49.456;8.164;2024-03-07T09:18:40;100286.53;;;6.54;76.73
16777;BME280;8505;49.456;8.164;2024-03-07T09:21:08;100295.38;;;6.53;76.12
16777;BME280;8505;49.456;8.164;2024-03-07T09:23:38;100287.94;;;6.67;75.69
16777;BME280;8505;49.456;8.164;2024-03-07T09:26:05;100288.13;;;6.75;75.60
16777;BME280;8505;49.456;8.164;2024-03-07T09:28:33;100289.06;;;6.65;75.23
16777;BME280;8505;49.456;8.164;2024-03-07T09:31:01;100281.94;;;6.56;74.97
16777;BME280;8505;49.456;8.164;2024-03-07T09:33:29;100281.03;;;6.66;74.99
16777;BME280;8505;49.456;8.164;2024-03-07T09:35:57;100290.25;;;6.51;75.38
16777;BME280;8505;49.456;8.164;2024-03-07T09:38:26;100285.63;;;6.43;75.96
16777;BME280;8505;49.456;8.164;2024-03-07T09:40:56;100284.78;;;6.43;75.68
16777;BME280;8505;49.456;8.164;2024-03-07T09:43:24;100285.91;;;6.40;75.59
16777;BME280;8505;49.456;8.164;2024-03-07T09:45:53;100276.88;;;6.33;76.52
16777;BME280;8505;49.456;8.164;2024-03-07T09:48:22;100280.91;;;6.37;76.34
16777;BME280;8505;49.456;8.164;2024-03-07T09:50:56;100278.03;;;6.40;77.54
16777;BME280;8505;49.456;8.164;2024-03-07T09:53:25;100278.16;;;6.48;77.30
16777;BME280;8505;49.456;8.164;2024-03-07T09:55:53;100278.69;;;6.42;77.10
16777;BME280;8505;49.456;8.164;2024-03-07T09:58:24;100278.69;;;6.12;76.71
16777;BME280;8505;49.456;8.164;2024-03-07T10:00:53;100270.56;;;6.45;75.00
16777;BME280;8505;49.456;8.164;2024-03-07T10:03:21;100273.81;;;6.59;72.39
16777;BME280;8505;49.456;8.164;2024-03-07T10:05:50;100274.75;;;6.48;71.58
16777;BME280;8505;49.456;8.164;2024-03-07T10:08:19;100275.19;;;6.63;71.48
16777;BME280;8505;49.456;8.164;2024-03-07T10:10:49;100280.66;;;6.20;68.87
16777;BME280;8505;49.456;8.164;2024-03-07T10:13:17;100276.28;;;6.30;68.78
16777;BME280;8505;49.456;8.164;2024-03-07T10:15:47;100276.41;;;6.89;68.28
16777;BME280;8505;49.456;8.164;2024-03-07T10:18:15;100271.22;;;7.47;65.73
16777;BME280;8505;49.456;8.164;2024-03-07T10:20:45;100258.84;;;8.51;61.93
16777;BME280;8505;49.456;8.164;2024-03-07T10:23:18;100265.88;;;8.88;59.09
16777;BME280;8505;49.456;8.164;2024-03-07T10:25:47;100256.13;;;9.33;57.96
16777;BME280;8505;49.456;8.164;2024-03-07T10:28:16;100267.59;;;9.07;57.74
16777;BME280;8505;49.456;8.164;2024-03-07T10:30:44;100270.72;;;8.09;59.67
16777;BME280;8505;49.456;8.164;2024-03-07T10:33:13;100261.38;;;8.34;59.54
16777;BME280;8505;49.456;8.164;2024-03-07T10:35:41;100250.34;;;7.92;60.20
16777;BME280;8505;49.456;8.164;2024-03-07T10:38:09;100261.09;;;8.37;59.35
16777;BME280;8505;49.456;8.164;2024-03-07T10:40:41;100246.47;;;8.79;56.93
16777;BME280;8505;49.456;8.164;2024-03-07T10:43:10;100253.69;;;8.77;57.55
16777;BME280;8505;49.456;8.164;2024-03-07T10:45:44;100246.56;;;8.60;57.34
16777;BME280;8505;49.456;8.164;2024-03-07T10:48:18;100249.03;;;8.34;58.65
16777;BME280;8505;49.456;8.164;2024-03-07T10:50:55;100245.47;;;8.53;58.55
16777;BME280;8505;49.456;8.164;2024-03-07T10:53:31;100234.88;;;8.26;59.14
16777;BME280;8505;49.456;8.164;2024-03-07T10:56:14;100237.09;;;8.30;59.83
16777;BME280;8505;49.456;8.164;2024-03-07T10:58:56;100234.53;;;8.01;59.95
16777;BME280;8505;49.456;8.164;2024-03-07T11:01:26;100228.50;;;8.09;59.60
16777;BME280;8505;49.456;8.164;2024-03-07T11:04:00;100233.53;;;8.02;60.49
16777;BME280;8505;49.456;8.164;2024-03-07T11:06:31;100227.53;;;8.20;59.91
16777;BME280;8505;49.456;8.164;2024-03-07T11:09:01;100220.63;;;8.46;59.78
16777;BME280;8505;49.456;8.164;2024-03-07T11:11:38;100210.63;;;8.12;60.46
16777;BME280;8505;49.456;8.164;2024-03-07T11:14:07;100217.13;;;8.55;59.23
16777;BME280;8505;49.456;8.164;2024-03-07T11:16:38;100213.66;;;8.18;58.93
16777;BME280;8505;49.456;8.164;2024-03-07T11:19:19;100216.22;;;7.90;59.65
16777;BME280;8505;49.456;8.164;2024-03-07T11:21:48;100214.56;;;8.45;59.68
16777;BME280;8505;49.456;8.164;2024-03-07T11:24:26;100211.72;;;8.20;60.24
16777;BME280;8505;49.456;8.164;2024-03-07T11:26:55;100210.31;;;8.52;59.42
16777;BME280;8505;49.456;8.164;2024-03-07T11:29:42;100209.41;;;8.71;59.66
16777;BME280;8505;49.456;8.164;2024-03-07T11:32:11;100209.81;;;8.94;59.55
16777;BME280;8505;49.456;8.164;2024-03-07T11:34:42;100205.88;;;8.80;59.07
16777;BME280;8505;49.456;8.164;2024-03-07T11:37:17;100201.34;;;8.45;59.07
16777;BME280;8505;49.456;8.164;2024-03-07T11:39:45;100190.28;;;9.05;60.00
16777;BME280;8505;49.456;8.164;2024-03-07T11:42:22;100180.63;;;9.74;56.16
16777;BME280;8505;49.456;8.164;2024-03-07T11:44:52;100172.31;;;9.69;55.19
16777;BME280;8505;49.456;8.164;2024-03-07T11:47:23;100167.56;;;10.07;55.54
16777;BME280;8505;49.456;8.164;2024-03-07T11:49:53;100161.00;;;10.37;53.86
16777;BME280;8505;49.456;8.164;2024-03-07T11:52:21;100164.84;;;9.91;54.52
16777;BME280;8505;49.456;8.164;2024-03-07T11:54:49;100160.69;;;10.48;55.17
16777;BME280;8505;49.456;8.164;2024-03-07T11:57:18;100156.69;;;11.18;54.66
16777;BME280;8505;49.456;8.164;2024-03-07T11:59:53;100151.69;;;11.88;52.52
16777;BME280;8505;49.456;8.164;2024-03-07T12:02:21;100153.34;;;11.65;50.50
16777;BME280;8505;49.456;8.164;2024-03-07T12:04:49;100137.41;;;12.36;49.14
16777;BME280;8505;49.456;8.164;2024-03-07T12:07:19;100135.19;;;12.48;49.69
16777;BME280;8505;49.456;8.164;2024-03-07T12:09:49;100132.03;;;12.83;49.18
16777;BME280;8505;49.456;8.164;2024-03-07T12:12:20;100128.66;;;11.72;50.38
16777;BME280;8505;49.456;8.164;2024-03-07T12:14:49;100129.06;;;12.47;49.82
16777;BME280;8505;49.456;8.164;2024-03-07T12:17:18;100120.03;;;13.33;47.99
16777;BME280;8505;49.456;8.164;2024-03-07T12:19:46;100117.78;;;12.76;48.03
16777;BME280;8505;49.456;8.164;2024-03-07T12:22:14;100122.63;;;12.03;49.98
16777;BME280;8505;49.456;8.164;2024-03-07T12:25:01;100120.47;;;11.98;50.60
16777;BME280;8505;49.456;8.164;2024-03-07T12:27:29;100118.09;;;12.11;49.05
16777;BME280;8505;49.456;8.164;2024-03-07T12:29:58;100109.72;;;12.62;49.67
16777;BME280;8505;49.456;8.164;2024-03-07T12:32:28;100100.28;;;13.27;48.34
16777;BME280;8505;49.456;8.164;2024-03-07T12:34:58;100091.72;;;13.55;46.83
16777;BME280;8505;49.456;8.164;2024-03-07T12:37:26;100090.91;;;13.98;46.37
16777;BME280;8505;49.456;8.164;2024-03-07T12:39:56;100088.88;;;13.56;45.83
16777;BME280;8505;49.456;8.164;2024-03-07T12:42:29;100085.19;;;13.43;47.15
16777;BME280;8505;49.456;8.164;2024-03-07T12:44:58;100091.00;;;11.69;49.98
16777;BME280;8505;49.456;8.164;2024-03-07T12:47:27;100080.94;;;12.11;49.85
16777;BME280;8505;49.456;8.164;2024-03-07T12:49:54;100083.88;;;11.61;49.54
16777;BME280;8505;49.456;8.164;2024-03-07T12:52:24;100087.72;;;11.51;50.31
16777;BME280;8505;49.456;8.164;2024-03-07T12:54:52;100084.28;;;11.34;50.91
16777;BME280;8505;49.456;8.164;2024-03-07T12:57:22;100081.97;;;11.15;51.16
16777;BME280;8505;49.456;8.164;2024-03-07T12:59:51;100073.69;;;10.77;53.05
16777;BME280;8505;49.456;8.164;2024-03-07T13:02:19;100079.81;;;11.10;52.40
16777;BME280;8505;49.456;8.164;2024-03-07T13:04:46;100073.03;;;11.16;51.94
16777;BME280;8505;49.456;8.164;2024-03-07T13:07:17;100072.53;;;11.12;51.67
16777;BME280;8505;49.456;8.164;2024-03-07T13:09:45;100067.50;;;11.58;51.40
16777;BME280;8505;49.456;8.164;2024-03-07T13:12:14;100063.75;;;11.91;50.39
16777;BME280;8505;49.456;8.164;2024-03-07T13:14:42;100067.50;;;12.05;50.40
16777;BME280;8505;49.456;8.164;2024-03-07T13:17:12;100068.03;;;12.00;50.47
16777;BME280;8505;49.456;8.164;2024-03-07T13:19:40;100063.25;;;11.00;51.86